Terminal Aerodrome Forecast
Issued by NWS Sterling, VA

Current Version | Previous Version | Graphics & Text | Print | Product List | Glossary On
Versions: 1 2 3 4 5 6 7 8 9 10 11 12 13 14 15 16 17 18 19 20 21 22 23 24 25 26 27
000
FTUS41 KLWX 231125
TAFDCA
TAF
KDCA 231125Z 2312/2412 19010KT 6SM -SHRA SCT008 OVC035
     FM231400 21011G21KT P6SM SCT015 OVC035
     FM231600 22013G20KT P6SM BKN045
     FM231800 22014G22KT P6SM VCTS BKN050CB BKN100
     FM240000 22014G21KT P6SM BKN050 BKN100
     FM240600 24011G19KT 6SM SHRA OVC040
     FM240800 19012G19KT 3SM +SHRA OVC015=

USA.gov is the U.S. government's official web portal to all federal, state and local government web resources and services.